Conroe's Hourly Summary for Friday, March 10, 2017
Hour Temp
(f)
RH
(%)
Solar Rad.
(MJ/m2)
Rainfall
(in)
Wind
(mph)
3/10/2017 12:00 AM 69 94 0 0 0.79
3/10/2017 1:00 AM 68 99 0 0 1.32
3/10/2017 2:00 AM 68 99 0 0 0.11
3/10/2017 3:00 AM 68 99 0 0 0
3/10/2017 4:00 AM 68 99 0 0 0
3/10/2017 5:00 AM 67 99 0 0 0
3/10/2017 6:00 AM 66 99 0 0 0.01
3/10/2017 7:00 AM 66 99 0.01 0 0.21
3/10/2017 8:00 AM 68 99 0.23 0 0.22
3/10/2017 9:00 AM 70 84 0.63 0 0.11
3/10/2017 10:00 AM 72 79 0.58 0 0.26
3/10/2017 11:00 AM 73 73 0.93 0 0.9
3/10/2017 12:00 PM 76 63 1.62 0 1.68
3/10/2017 1:00 PM 79 58 1.98 0 2.33
3/10/2017 2:00 PM 78 57 0.55 0 2.84
3/10/2017 3:00 PM 76 60 0.54 0 2.48
3/10/2017 4:00 PM 76 66 0.54 0 2.22
3/10/2017 5:00 PM 75 67 0.29 0 1.62
3/10/2017 6:00 PM 73 74 0.09 0 1.48
3/10/2017 7:00 PM 71 77 0.01 0 0.19
3/10/2017 8:00 PM 70 74 0 0 0.71
3/10/2017 9:00 PM 68 73 0 0 0.3
3/10/2017 10:00 PM 67 79 0 0 0.02
3/10/2017 11:00 PM 65 85 0 0 0.01
Data Summary 70 81 8.00 0.00 0.83